Time;durP1;ratioP1;P1;durP2;ratioP2;P2;SDS_P1;SDS_P2;PMS_P1;PMS_P2;Temp;Humidity;BMP_temperature;BMP_pressure;BME280_temperature;BME280_humidity;BME280_pressure;Samples;Min_cycle;Max_cycle;Signal;HPM_P1;HPM_P2
2022/01/13 00:00:22;;;;;;;37.97;15.13;;;;;;;-4.75;86.86;100549.69;2611760;28;20511;-79
2022/01/13 00:02:04;;;;;;;38.83;16.25;;;;;;;-4.75;87.11;100547.13;2611362;28;20045;-79
2022/01/13 00:03:19;;;;;;;38.80;15.68;;;;;;;-4.74;86.94;100542.91;2611748;28;20484;-79
2022/01/13 00:04:35;;;;;;;37.60;16.33;;;;;;;-4.79;86.93;100540.03;2611582;28;20063;-79
2022/01/13 00:05:50;;;;;;;34.28;14.65;;;;;;;-4.93;86.37;100539.09;2611612;28;20045;-79
2022/01/13 00:07:06;;;;;;;34.35;15.68;;;;;;;-4.99;86.76;100536.09;2611246;28;20072;-79
2022/01/13 00:08:22;;;;;;;38.22;15.35;;;;;;;-5.00;86.28;100539.44;2611558;28;20053;-79
2022/01/13 00:09:37;;;;;;;36.25;16.05;;;;;;;-5.04;86.53;100535.78;2611464;28;20056;-79
2022/01/13 00:10:53;;;;;;;35.40;14.95;;;;;;;-5.07;86.26;100539.81;2611333;28;20144;-79
2022/01/13 00:12:10;;;;;;;38.65;16.63;;;;;;;-5.06;86.87;100537.34;2611447;28;20045;-80
2022/01/13 00:13:31;;;;;;;37.42;15.25;;;;;;;-5.07;86.61;100535.59;2611379;28;20087;-79
2022/01/13 00:20:38;;;;;;;46.70;20.77;;;;;;;-5.18;87.01;100526.28;2611444;28;20052;-79
2022/01/13 00:22:13;;;;;;;50.78;22.80;;;;;;;-5.23;86.80;100532.75;2611520;28;20059;-80
2022/01/13 00:23:46;;;;;;;57.97;22.05;;;;;;;-5.39;87.24;100529.16;2611499;28;20755;-79
2022/01/13 00:25:03;;;;;;;55.58;21.73;;;;;;;-5.43;87.18;100527.16;2611459;28;20049;-79
2022/01/13 00:26:23;;;;;;;59.53;24.70;;;;;;;-5.43;87.40;100527.16;2611277;28;20045;-79
2022/01/13 00:27:43;;;;;;;57.97;23.10;;;;;;;-5.44;87.63;100533.06;2611249;28;20190;-80
2022/01/13 00:29:02;;;;;;;56.85;23.80;;;;;;;-5.34;87.62;100538.00;2611213;28;20040;-79
2022/01/13 00:30:20;;;;;;;59.25;23.80;;;;;;;-5.31;87.78;100534.78;2611337;28;20040;-79
2022/01/13 00:31:40;;;;;;;62.20;25.30;;;;;;;-5.25;87.85;100533.53;2610656;28;20048;-79
2022/01/13 00:32:55;;;;;;;59.72;22.77;;;;;;;-5.21;87.81;100524.44;2610850;28;20388;-79
2022/01/13 00:34:11;;;;;;;44.22;18.25;;;;;;;-5.25;87.87;100536.09;2611112;28;20090;-79
2022/01/13 00:35:26;;;;;;;46.97;19.02;;;;;;;-5.25;87.82;100530.09;2611113;28;20095;-79
2022/01/13 00:36:42;;;;;;;45.60;18.02;;;;;;;-5.24;88.03;100524.19;2611137;28;20041;-79
2022/01/13 00:37:58;;;;;;;42.75;16.48;;;;;;;-5.26;88.36;100523.22;2611095;28;20453;-80
2022/01/13 00:39:14;;;;;;;42.75;16.50;;;;;;;-5.22;88.30;100526.88;2611211;28;20052;-79
2022/01/13 00:40:30;;;;;;;37.38;15.88;;;;;;;-5.20;88.05;100535.53;2611310;28;20044;-79
2022/01/13 00:41:45;;;;;;;41.55;14.48;;;;;;;-5.21;88.63;100532.09;2611159;28;20064;-79
2022/01/13 00:43:01;;;;;;;37.03;15.50;;;;;;;-5.21;88.24;100536.31;2611272;28;20114;-78
2022/01/13 00:44:20;;;;;;;34.45;14.68;;;;;;;-5.23;88.46;100535.31;2611261;28;20075;-79
2022/01/13 00:45:35;;;;;;;42.22;15.63;;;;;;;-5.27;88.33;100529.09;2611059;28;20036;-78
2022/01/13 00:46:59;;;;;;;36.55;14.88;;;;;;;-5.30;87.99;100537.47;2611047;28;20055;-79
2022/01/13 00:48:15;;;;;;;34.13;14.43;;;;;;;-5.33;88.19;100527.00;2611159;28;20045;-79
2022/01/13 00:49:31;;;;;;;34.20;14.75;;;;;;;-5.36;87.75;100526.78;2611048;28;20086;-79
2022/01/13 00:50:47;;;;;;;33.90;14.10;;;;;;;-5.39;87.46;100529.16;2611165;28;20454;-78
2022/01/13 00:52:04;;;;;;;38.75;14.93;;;;;;;-5.47;87.00;100532.81;2610825;28;20045;-79
2022/01/13 00:53:20;;;;;;;34.63;13.88;;;;;;;-5.48;87.16;100533.59;2611195;28;20069;-79
2022/01/13 00:54:35;;;;;;;29.60;14.07;;;;;;;-5.49;86.96;100534.38;2611060;28;20055;-79
2022/01/13 00:56:00;;;;;;;37.80;15.77;;;;;;;-5.54;87.20;100539.16;2610452;28;20484;-79
2022/01/13 00:57:16;;;;;;;30.75;13.18;;;;;;;-5.55;86.83;100532.28;2610813;28;20049;-79
2022/01/13 00:58:34;;;;;;;37.08;14.65;;;;;;;-5.56;86.78;100530.50;2611028;28;20052;-78
2022/01/13 00:59:49;;;;;;;36.70;15.05;;;;;;;-5.56;87.35;100536.50;2610986;28;20124;-78
2022/01/13 01:01:06;;;;;;;34.10;15.68;;;;;;;-5.56;86.87;100536.50;2610906;28;20048;-79
2022/01/13 01:02:22;;;;;;;34.10;15.35;;;;;;;-5.59;87.19;100532.84;2610093;28;20075;-79
2022/01/13 01:03:37;;;;;;;32.05;14.27;;;;;;;-5.63;87.02;100535.97;2610631;28;20072;-79
2022/01/13 01:04:53;;;;;;;40.00;15.73;;;;;;;-5.63;86.89;100538.53;2610021;28;20048;-81
2022/01/13 01:06:09;;;;;;;40.33;15.98;;;;;;;-5.63;86.96;100529.19;2610602;28;20602;-79
2022/01/13 01:07:24;;;;;;;43.08;17.23;;;;;;;-5.73;87.22;100526.75;2610812;28;20073;-79
2022/01/13 01:08:40;;;;;;;36.13;14.82;;;;;;;-5.72;87.47;100537.06;2611006;28;20052;-79
2022/01/13 01:09:58;;;;;;;42.70;15.65;;;;;;;-5.76;87.30;100539.28;2610951;28;20055;-80
2022/01/13 01:11:14;;;;;;;39.03;15.23;;;;;;;-5.82;87.20;100535.53;2610902;28;20053;-78
2022/01/13 01:12:32;;;;;;;40.17;16.38;;;;;;;-5.85;86.81;100530.22;2610682;28;20055;-79
2022/01/13 01:13:50;;;;;;;37.88;15.75;;;;;;;-5.81;87.03;100528.75;2610747;28;20048;-78
2022/01/13 01:15:06;;;;;;;40.28;16.95;;;;;;;-5.80;87.10;100533.06;2610624;28;20075;-80
2022/01/13 01:16:22;;;;;;;40.33;16.38;;;;;;;-5.75;86.96;100536.88;2610671;28;20052;-79
2022/01/13 01:17:45;;;;;;;42.22;14.95;;;;;;;-5.74;87.17;100532.63;2610748;28;20045;-79
2022/01/13 01:19:04;;;;;;;35.15;14.20;;;;;;;-5.69;87.16;100536.41;2610724;28;20056;-78
2022/01/13 01:20:20;;;;;;;37.97;15.18;;;;;;;-5.70;87.47;100532.09;2610771;28;20064;-78
2022/01/13 01:22:02;;;;;;;42.80;16.67;;;;;;;-5.68;87.54;100536.50;2610704;28;20053;-78
2022/01/13 01:23:16;;;;;;;39.53;15.98;;;;;;;-5.70;87.37;100532.97;2610721;28;20447;-79
2022/01/13 01:26:29;;;;;;;40.45;14.80;;;;;;;-5.72;87.90;100542.19;2610744;28;20088;-79
2022/01/13 01:27:47;;;;;;;36.88;15.50;;;;;;;-5.72;87.45;100542.19;2610637;28;20049;-79
2022/01/13 01:30:43;;;;;;;40.97;12.93;;;;;;;-5.74;87.57;100542.84;2610867;28;20127;-81
2022/01/13 01:32:00;;;;;;;40.72;15.35;;;;;;;-5.74;87.84;100540.28;2610866;28;20414;-79
2022/01/13 01:33:19;;;;;;;37.83;15.45;;;;;;;-5.78;87.40;100545.97;2610722;28;20423;-79
2022/01/13 01:35:50;;;;;;;38.70;15.60;;;;;;;-5.78;88.03;100538.31;2610694;28;20081;-79
2022/01/13 01:37:18;;;;;;;38.92;15.40;;;;;;;-5.79;87.66;100550.19;2610667;28;20049;-79
2022/01/13 01:38:34;;;;;;;38.42;15.40;;;;;;;-5.78;87.92;100548.50;2610766;28;20053;-81
2022/01/13 01:39:51;;;;;;;36.67;13.68;;;;;;;-5.79;87.21;100544.19;2610734;28;20455;-79
2022/01/13 01:41:07;;;;;;;35.83;14.10;;;;;;;-5.84;87.47;100548.94;2610815;28;20419;-79
2022/01/13 01:42:24;;;;;;;38.30;15.05;;;;;;;-5.85;87.70;100548.09;2610734;28;20045;-78
2022/01/13 01:43:40;;;;;;;34.17;14.93;;;;;;;-5.84;87.51;100542.19;2610706;28;20060;-78
2022/01/13 01:44:57;;;;;;;35.38;13.77;;;;;;;-5.87;87.51;100538.53;2610759;28;20086;-79
2022/01/13 01:46:13;;;;;;;38.25;14.50;;;;;;;-5.92;87.56;100537.34;2610748;28;20426;-79
2022/01/13 01:47:30;;;;;;;33.50;13.70;;;;;;;-5.96;87.24;100533.66;2610827;28;20128;-79
2022/01/13 01:48:46;;;;;;;36.45;13.70;;;;;;;-6.00;87.28;100536.78;2610568;28;20068;-79
2022/01/13 01:50:17;;;;;;;34.45;13.82;;;;;;;-5.99;87.33;100530.91;2610778;28;20036;-79
2022/01/13 01:51:33;;;;;;;35.35;13.57;;;;;;;-5.95;88.17;100536.31;2610796;28;20072;-79
2022/01/13 01:52:51;;;;;;;39.33;14.20;;;;;;;-5.90;87.71;100531.53;2610593;28;20381;-79
2022/01/13 01:54:08;;;;;;;44.05;16.30;;;;;;;-5.88;87.93;100529.97;2610399;28;20087;-79
2022/01/13 01:55:23;;;;;;;39.63;15.13;;;;;;;-5.88;87.91;100524.00;2610526;28;20044;-78
2022/01/13 01:56:40;;;;;;;35.83;14.27;;;;;;;-5.88;87.90;100522.31;2610557;28;20561;-79
2022/01/13 01:57:56;;;;;;;38.47;14.77;;;;;;;-5.87;87.82;100519.00;2610725;28;20057;-79
2022/01/13 01:59:16;;;;;;;37.83;14.30;;;;;;;-5.87;87.71;100520.69;2610574;28;20120;-79
2022/01/13 02:00:32;;;;;;;38.05;13.65;;;;;;;-5.87;88.29;100510.47;2610718;28;20530;-79
2022/01/13 02:01:49;;;;;;;39.55;14.95;;;;;;;-5.84;88.35;100514.13;2610621;28;20072;-79
2022/01/13 02:03:05;;;;;;;40.75;14.95;;;;;;;-5.86;87.89;100508.03;2610595;28;20052;-78
2022/01/13 02:04:24;;;;;;;36.63;13.57;;;;;;;-5.88;87.37;100514.69;2610707;28;20496;-78
2022/01/13 02:05:40;;;;;;;38.83;14.38;;;;;;;-5.91;87.65;100518.69;2610681;28;20053;-79
2022/01/13 02:06:59;;;;;;;32.10;13.75;;;;;;;-5.92;86.89;100522.91;2610485;28;20106;-79
2022/01/13 02:08:15;;;;;;;32.28;12.55;;;;;;;-6.02;86.87;100523.03;2612012;28;20048;-78
2022/01/13 02:09:31;;;;;;;35.55;14.13;;;;;;;-6.03;87.45;100514.50;2612715;28;20432;-78
2022/01/13 02:10:47;;;;;;;39.40;14.63;;;;;;;-6.00;87.50;100509.59;2612713;28;20487;-78
2022/01/13 02:12:08;;;;;;;38.88;13.57;;;;;;;-5.94;87.84;100509.16;2612718;28;20456;-79
2022/01/13 02:13:25;;;;;;;44.00;14.88;;;;;;;-5.89;87.72;100512.03;2612896;28;20049;-79
2022/01/13 02:14:55;;;;;;;39.38;15.07;;;;;;;-5.87;87.41;100516.44;2612455;28;20475;-79
2022/01/13 02:16:35;;;;;;;40.00;14.38;;;;;;;-5.82;88.23;100524.44;2612636;28;20542;-80
2022/01/13 02:17:46;;;;;;;37.58;13.82;;;;;;;-5.82;87.93;100522.78;2612537;28;20095;-78
2022/01/13 02:19:03;;;;;;;32.90;13.18;;;;;;;-5.87;87.96;100521.53;2612797;28;20069;-79
2022/01/13 02:20:19;;;;;;;42.15;15.43;;;;;;;-5.93;87.99;100521.13;2612712;28;20106;-78
2022/01/13 02:21:37;;;;;;;34.72;13.57;;;;;;;-5.95;88.65;100515.03;2612768;28;20052;-79
2022/01/13 02:22:53;;;;;;;33.88;13.27;;;;;;;-5.87;88.68;100520.69;2612762;28;20041;-79
2022/01/13 02:24:08;;;;;;;39.85;14.23;;;;;;;-5.78;89.24;100515.34;2612575;28;20045;-78
2022/01/13 02:25:24;;;;;;;41.45;13.60;;;;;;;-5.75;89.12;100510.44;2612621;28;20052;-78
2022/01/13 02:26:40;;;;;;;46.90;16.27;;;;;;;-5.73;88.97;100514.00;2612605;28;20045;-79
2022/01/13 02:27:55;;;;;;;42.22;15.88;;;;;;;-5.74;89.34;100502.00;2612508;28;20056;-80
2022/01/13 02:29:11;;;;;;;43.08;15.73;;;;;;;-5.76;88.96;100504.47;2612586;28;20052;-78
2022/01/13 02:30:26;;;;;;;43.33;15.10;;;;;;;-5.74;89.03;100494.34;2612473;28;20060;-79
2022/01/13 02:31:42;;;;;;;40.47;14.10;;;;;;;-5.77;89.17;100491.59;2612745;28;20045;-79
2022/01/13 02:32:58;;;;;;;39.78;16.17;;;;;;;-5.77;89.46;100494.16;2612612;28;20052;-79
2022/01/13 02:34:13;;;;;;;46.70;15.68;;;;;;;-5.78;89.19;100489.81;2612460;28;20056;-78
2022/01/13 02:35:34;;;;;;;42.95;14.85;;;;;;;-5.79;88.92;100488.97;2612498;28;20083;-79
2022/01/13 02:36:52;;;;;;;38.10;14.20;;;;;;;-5.78;89.22;100485.63;2612493;28;20089;-79
2022/01/13 02:38:11;;;;;;;38.13;15.20;;;;;;;-5.77;88.62;100492.50;2612481;28;20048;-79
2022/01/13 02:39:28;;;;;;;38.20;15.45;;;;;;;-5.75;89.10;100492.59;2612565;28;20446;-79
2022/01/13 02:40:43;;;;;;;45.25;15.82;;;;;;;-5.75;88.72;100495.13;2612482;28;20048;-79
2022/01/13 02:42:01;;;;;;;45.83;15.13;;;;;;;-5.70;88.91;100496.38;2612644;28;20041;-79
2022/01/13 02:43:17;;;;;;;37.45;13.57;;;;;;;-5.67;88.75;100494.91;2612464;28;20056;-79
2022/01/13 02:44:37;;;;;;;38.97;14.77;;;;;;;-5.65;88.33;100497.56;2612362;28;20048;-78
2022/01/13 02:49:00;;;;;;;35.42;13.23;;;;;;;-5.68;88.80;100500.78;2612444;28;20041;-79
2022/01/13 02:50:15;;;;;;;36.85;13.65;;;;;;;-5.69;88.74;100503.25;2612476;28;20060;-78
2022/01/13 02:51:31;;;;;;;40.78;14.57;;;;;;;-5.68;89.05;100507.56;2612536;28;20824;-78
2022/01/13 02:52:47;;;;;;;39.08;13.70;;;;;;;-5.69;89.11;100506.66;2612534;28;20037;-78
2022/01/13 02:54:03;;;;;;;40.88;13.85;;;;;;;-5.68;88.99;100499.91;2612394;28;20048;-78
2022/01/13 02:55:18;;;;;;;37.70;13.88;;;;;;;-5.69;88.78;100490.50;2612165;28;20049;-79
2022/01/13 02:56:36;;;;;;;40.83;14.73;;;;;;;-5.71;88.64;100481.84;2612266;28;20499;-78
2022/01/13 02:57:51;;;;;;;41.92;14.68;;;;;;;-5.74;88.79;100477.41;2612466;28;20045;-79
2022/01/13 02:59:07;;;;;;;37.05;14.07;;;;;;;-5.86;87.89;100472.34;2612496;28;20083;-79
2022/01/13 03:00:22;;;;;;;35.75;14.00;;;;;;;-5.86;88.32;100473.97;2612364;28;20451;-79
2022/01/13 03:01:39;;;;;;;43.92;17.02;;;;;;;-5.95;88.73;100475.09;2612004;28;20522;-79
2022/01/13 03:02:54;;;;;;;52.38;19.77;;;;;;;-5.87;88.73;100473.09;2612416;28;20415;-79
2022/01/13 03:04:10;;;;;;;47.13;18.60;;;;;;;-5.86;88.95;100472.34;2612379;28;20361;-78
2022/01/13 03:05:26;;;;;;;53.25;20.05;;;;;;;-5.83;88.92;100475.09;2612358;28;20079;-78
2022/01/13 03:06:42;;;;;;;52.00;19.70;;;;;;;-5.88;89.09;100468.75;2612141;28;20098;-78
2022/01/13 03:07:57;;;;;;;39.80;16.98;;;;;;;-5.95;88.78;100462.34;2612316;28;20052;-78
2022/01/13 03:09:13;;;;;;;50.88;19.98;;;;;;;-5.98;88.85;100462.13;2612310;28;20052;-79
2022/01/13 03:10:29;;;;;;;43.45;17.83;;;;;;;-6.11;88.32;100455.31;2612194;28;20072;-79
2022/01/13 03:11:46;;;;;;;43.40;17.15;;;;;;;-6.17;88.26;100449.75;2612238;28;20491;-79
2022/01/13 03:13:03;;;;;;;42.70;16.05;;;;;;;-6.16;88.81;100459.19;2612229;28;20802;-79
2022/01/13 03:14:19;;;;;;;48.30;18.23;;;;;;;-6.19;88.96;100453.00;2612073;28;20047;-79
2022/01/13 03:15:34;;;;;;;42.03;17.55;;;;;;;-6.14;89.18;100449.09;2611901;28;20049;-78
2022/01/13 03:16:50;;;;;;;37.97;17.05;;;;;;;-6.14;88.55;100450.00;2611873;28;20049;-79
2022/01/13 03:18:05;;;;;;;41.03;16.60;;;;;;;-6.14;88.63;100454.19;2612129;28;20650;-79
2022/01/13 03:19:22;;;;;;;41.80;15.82;;;;;;;-6.19;88.26;100455.53;2611879;28;20487;-79
2022/01/13 03:20:37;;;;;;;38.55;16.67;;;;;;;-6.31;87.34;100455.53;2612394;28;20045;-79
2022/01/13 03:21:53;;;;;;;37.90;15.02;;;;;;;-6.37;87.46;100450.88;2612241;28;20049;-78
2022/01/13 03:23:10;;;;;;;37.92;16.05;;;;;;;-6.36;87.75;100451.78;2612036;28;20388;-78
2022/01/13 03:24:26;;;;;;;38.03;15.52;;;;;;;-6.38;87.24;100454.19;2611969;28;20409;-78
2022/01/13 03:25:44;;;;;;;36.72;15.52;;;;;;;-6.40;87.46;100459.19;2612036;28;20080;-78
2022/01/13 03:27:02;;;;;;;36.17;14.63;;;;;;;-6.39;87.79;100452.41;2611703;28;20045;-78
2022/01/13 03:28:28;;;;;;;38.40;15.93;;;;;;;-6.31;88.00;100452.97;2612048;28;20073;-78
2022/01/13 03:29:44;;;;;;;38.55;14.52;;;;;;;-6.31;88.25;100455.53;2612059;28;20044;-79
2022/01/13 03:31:00;;;;;;;39.97;15.10;;;;;;;-6.31;88.17;100458.97;2611918;28;20439;-78
2022/01/13 03:32:17;;;;;;;34.50;13.82;;;;;;;-6.33;88.15;100462.19;2611857;28;20045;-78
2022/01/13 03:33:34;;;;;;;33.88;13.27;;;;;;;-6.30;87.96;100468.41;2611897;28;20052;-78
2022/01/13 03:34:49;;;;;;;33.55;13.73;;;;;;;-6.33;87.46;100468.19;2611926;28;20045;-79
2022/01/13 03:36:05;;;;;;;32.63;13.77;;;;;;;-6.36;87.50;100467.94;2611659;28;20132;-78
2022/01/13 03:37:21;;;;;;;35.85;13.20;;;;;;;-6.40;87.15;100476.13;2612029;28;20053;-79
2022/01/13 03:38:36;;;;;;;30.73;13.15;;;;;;;-6.40;87.11;100479.59;2611898;28;20081;-79
2022/01/13 03:39:52;;;;;;;34.42;14.73;;;;;;;-6.42;87.41;100481.16;2611993;28;20053;-78
2022/01/13 03:41:08;;;;;;;36.78;13.20;;;;;;;-6.44;86.95;100485.22;2612085;28;20408;-79
2022/01/13 03:42:24;;;;;;;32.53;12.23;;;;;;;-6.44;87.20;100482.66;2611604;28;20049;-79
2022/01/13 03:43:40;;;;;;;37.17;13.38;;;;;;;-6.40;87.45;100486.34;2611836;28;20120;-78
2022/01/13 03:44:56;;;;;;;31.17;12.48;;;;;;;-6.39;87.59;100488.09;2611787;28;20048;-78
2022/01/13 03:46:14;;;;;;;31.67;12.77;;;;;;;-6.36;87.86;100487.47;2611698;28;20049;-79
2022/01/13 03:47:30;;;;;;;31.30;13.32;;;;;;;-6.38;87.57;100488.22;2621289;28;20274;-79
2022/01/13 03:48:45;;;;;;;32.90;12.23;;;;;;;-6.37;87.94;100489.09;2617598;28;20045;-79
2022/01/13 03:50:01;;;;;;;34.80;14.32;;;;;;;-6.33;88.61;100483.47;2611813;28;20049;-77
2022/01/13 03:51:17;;;;;;;49.80;19.55;;;;;;;-6.30;89.40;100482.78;2611784;28;20060;-78
2022/01/13 03:53:02;;;;;;;44.70;18.20;;;;;;;-6.24;89.71;100488.34;2611907;28;20433;-78
2022/01/13 03:54:32;;;;;;;35.50;14.20;;;;;;;-6.05;89.52;100480.38;2611709;28;20048;-78
2022/01/13 03:56:21;;;;;;;41.67;16.13;;;;;;;-6.08;89.20;100487.78;2611595;28;20414;-78
2022/01/13 03:58:15;;;;;;;33.88;14.70;;;;;;;-6.14;88.28;100480.59;2611843;28;20434;-78
2022/01/13 03:59:38;;;;;;;;;;;;;;;-6.19;88.10;100484.47;2612488;28;20063;-78
2022/01/13 04:01:41;;;;;;;31.75;10.80;;;;;;;-6.29;88.12;100482.00;2611480;28;20071;-78
2022/01/13 04:02:57;;;;;;;24.38;9.55;;;;;;;-6.38;87.98;100484.78;2606492;28;20068;-78
2022/01/13 04:04:12;;;;;;;29.17;11.07;;;;;;;-6.39;88.50;100483.91;2611597;28;20491;-78
2022/01/13 04:05:27;;;;;;;31.88;12.68;;;;;;;-6.33;88.32;100485.13;2611704;28;20040;-78
2022/01/13 04:06:45;;;;;;;36.08;13.23;;;;;;;-6.30;88.25;100488.78;2611487;28;20384;-78
2022/01/13 04:08:01;;;;;;;32.47;13.65;;;;;;;-6.30;88.25;100487.88;2611732;28;20045;-78
2022/01/13 04:09:32;;;;;;;32.88;13.93;;;;;;;-6.27;88.07;100488.13;2610931;28;20502;-79
2022/01/13 04:10:50;;;;;;;34.88;12.57;;;;;;;-6.18;87.97;100488.78;2611447;28;20041;-79
2022/01/13 04:12:07;;;;;;;35.50;13.73;;;;;;;-6.16;87.88;100484.66;2611635;28;20041;-80
2022/01/13 04:13:44;;;;;;;35.35;13.88;;;;;;;-6.16;88.15;100488.91;2611615;28;20060;-80
2022/01/13 04:15:02;;;;;;;33.67;13.48;;;;;;;-6.23;88.19;100485.03;2610445;28;22251;-79
2022/01/13 04:16:25;;;;;;;33.30;12.70;;;;;;;-6.23;87.85;100485.03;2610998;28;20076;-80
2022/01/13 04:17:43;;;;;;;31.73;12.40;;;;;;;-6.24;88.20;100481.56;2608699;28;20044;-80
2022/01/13 04:19:04;;;;;;;36.72;14.18;;;;;;;-6.28;88.33;100481.25;2608604;28;20537;-80
2022/01/13 04:20:20;;;;;;;34.83;13.88;;;;;;;-6.31;87.91;100491.22;2608748;28;20041;-81
2022/01/13 04:21:38;;;;;;;31.65;12.30;;;;;;;-6.30;87.99;100486.25;2611332;28;20438;-80
2022/01/13 04:22:53;;;;;;;30.58;13.27;;;;;;;-6.25;88.00;100484.03;2611350;28;20446;-80
2022/01/13 04:24:11;;;;;;;36.00;14.55;;;;;;;-6.23;88.01;100490.13;2611257;28;20049;-79
2022/01/13 04:25:27;;;;;;;31.02;12.05;;;;;;;-6.29;87.70;100487.09;2611173;28;20052;-78
2022/01/13 04:26:44;;;;;;;37.05;13.20;;;;;;;-6.28;87.28;100491.47;2611159;28;20048;-79
2022/01/13 04:28:02;;;;;;;31.73;12.57;;;;;;;-6.28;87.32;100489.78;2608793;28;20052;-78
2022/01/13 04:29:27;;;;;;;34.72;12.63;;;;;;;-6.26;87.13;100495.88;2611257;28;20052;-78
2022/01/13 04:31:58;;;;;;;34.38;13.80;;;;;;;-6.14;87.72;100485.69;2611327;28;20135;-78
2022/01/13 04:33:14;;;;;;;30.90;12.43;;;;;;;-6.10;87.79;100487.69;2611302;28;20111;-78
2022/01/13 04:34:31;;;;;;;30.88;12.88;;;;;;;-6.09;87.84;100475.81;2605987;28;20045;-79
2022/01/13 04:35:47;;;;;;;33.58;13.60;;;;;;;-6.04;87.81;100473.59;2611213;28;20482;-78
2022/01/13 04:37:02;;;;;;;35.45;13.55;;;;;;;-5.99;88.19;100482.44;2611271;28;20123;-78
2022/01/13 04:38:18;;;;;;;37.00;13.75;;;;;;;-5.97;88.55;100483.44;2611602;28;20053;-80
2022/01/13 04:39:35;;;;;;;33.08;11.95;;;;;;;-5.92;88.28;100487.19;2611355;28;20069;-80
2022/01/13 04:40:56;;;;;;;37.83;12.63;;;;;;;-5.86;88.29;100492.75;2611273;28;20455;-80
2022/01/13 04:42:13;;;;;;;38.20;12.93;;;;;;;-5.78;88.38;100498.38;2611188;28;20096;-80
2022/01/13 04:43:30;;;;;;;39.75;14.60;;;;;;;-5.72;88.68;100500.50;2610265;28;20051;-80
2022/01/13 04:44:46;;;;;;;35.63;13.65;;;;;;;-5.65;88.90;100491.59;2614709;28;20048;-80
2022/01/13 04:46:02;;;;;;;36.22;14.20;;;;;;;-5.62;88.47;100496.91;2616607;28;20068;-80
2022/01/13 04:47:17;;;;;;;37.85;14.95;;;;;;;-5.59;89.11;100499.66;2611136;28;20068;-80
2022/01/13 04:48:33;;;;;;;46.45;16.88;;;;;;;-5.53;88.76;100501.00;2610954;28;20123;-80
2022/01/13 04:49:48;;;;;;;44.33;18.30;;;;;;;-5.43;89.13;100499.09;2610888;28;20045;-80
2022/01/13 04:51:04;;;;;;;42.70;15.95;;;;;;;-5.45;88.64;100495.50;2611170;28;20041;-80
2022/01/13 04:52:20;;;;;;;39.03;15.23;;;;;;;-5.42;88.28;100495.75;2610804;28;20045;-81
2022/01/13 04:53:35;;;;;;;37.70;14.70;;;;;;;-5.40;88.55;100494.19;2611146;28;20419;-83
2022/01/13 04:54:51;;;;;;;35.20;14.75;;;;;;;-5.35;88.93;100490.28;2610587;28;20049;-80
2022/01/13 04:56:12;;;;;;;32.63;14.52;;;;;;;-5.29;88.71;100489.81;2609674;28;20110;-78
2022/01/13 04:57:27;;;;;;;37.25;14.65;;;;;;;-5.22;88.84;100486.00;2607419;28;20071;-78
2022/01/13 04:58:43;;;;;;;34.03;13.88;;;;;;;-5.07;88.47;100491.28;2600554;28;20049;-78
2022/01/13 04:59:59;;;;;;;39.88;15.02;;;;;;;-5.07;88.29;100486.19;2600080;28;20054;-78
2022/01/13 05:01:14;;;;;;;38.40;14.57;;;;;;;-5.14;87.99;100501.06;2605434;28;20055;-78
2022/01/13 05:02:30;;;;;;;37.38;15.40;;;;;;;-5.11;87.53;100498.72;2610832;28;20068;-78
2022/01/13 05:03:45;;;;;;;32.33;14.13;;;;;;;-5.08;87.69;100495.50;2611096;28;20128;-78
2022/01/13 05:05:01;;;;;;;38.92;14.63;;;;;;;-4.98;87.59;100504.66;2610849;28;20141;-78
2022/01/13 05:06:20;;;;;;;37.53;13.88;;;;;;;-4.92;87.82;100501.66;2610605;28;20411;-78
2022/01/13 05:07:35;;;;;;;34.22;14.80;;;;;;;-4.91;87.97;100496.66;2610819;28;20044;-78
2022/01/13 05:08:51;;;;;;;35.55;14.55;;;;;;;-4.82;87.91;100498.94;2610666;28;20603;-78
2022/01/13 05:10:08;;;;;;;35.17;14.30;;;;;;;-4.80;87.59;100493.94;2610639;28;20072;-78
2022/01/13 05:11:25;;;;;;;34.58;13.98;;;;;;;-4.72;87.16;100492.75;2610569;28;20483;-78
2022/01/13 05:12:45;;;;;;;36.95;15.80;;;;;;;-4.71;87.49;100484.31;2610453;28;20041;-77
2022/01/13 05:14:01;;;;;;;37.13;14.40;;;;;;;-4.65;88.10;100481.28;2610520;28;20426;-78
2022/01/13 05:15:22;;;;;;;37.17;14.27;;;;;;;-4.70;87.19;100480.97;2610424;28;20132;-78
2022/01/13 05:16:54;;;;;;;39.22;16.02;;;;;;;-4.74;86.89;100482.47;2609514;28;20055;-78
2022/01/13 05:18:57;;;;;;;39.08;14.85;;;;;;;-4.69;86.53;100483.63;2607118;28;20064;-78
2022/01/13 05:20:10;;;;;;;37.22;14.60;;;;;;;-4.74;86.75;100477.34;2599789;28;20056;-78
2022/01/13 05:21:44;;;;;;;38.80;15.32;;;;;;;-4.71;86.61;100477.53;2610401;28;20045;-78
2022/01/13 05:22:59;;;;;;;44.20;17.40;;;;;;;-4.72;86.51;100469.75;2609501;28;20047;-78
2022/01/13 05:24:14;;;;;;;37.25;15.40;;;;;;;-4.73;86.68;100479.13;2610371;28;20124;-78
2022/01/13 05:25:30;;;;;;;39.88;16.67;;;;;;;-4.74;87.05;100474.78;2610716;28;20041;-78
2022/01/13 05:26:46;;;;;;;37.95;14.93;;;;;;;-4.60;87.09;100467.16;2610425;28;20047;-78
2022/01/13 05:28:02;;;;;;;39.10;15.80;;;;;;;-4.64;86.82;100468.63;2610337;28;20045;-78
2022/01/13 05:29:20;;;;;;;35.25;14.65;;;;;;;-4.73;87.11;100479.13;2610948;28;20056;-78
2022/01/13 05:30:35;;;;;;;36.35;15.60;;;;;;;-4.71;86.91;100474.09;2610684;28;20056;-78
2022/01/13 05:31:51;;;;;;;34.83;14.90;;;;;;;-4.71;87.09;100479.19;2610627;28;20514;-80
2022/01/13 05:33:07;;;;;;;40.40;14.88;;;;;;;-4.71;87.48;100479.19;2610690;28;20114;-78
2022/01/13 05:34:23;;;;;;;38.20;14.60;;;;;;;-4.74;87.55;100477.34;2610766;28;20052;-79
2022/01/13 05:35:38;;;;;;;34.25;15.00;;;;;;;-4.76;87.71;100483.13;2610656;28;20037;-78
2022/01/13 05:36:54;;;;;;;35.05;13.93;;;;;;;-4.78;87.87;100485.56;2610495;28;20407;-78
2022/01/13 05:38:10;;;;;;;35.80;15.52;;;;;;;-4.82;87.32;100481.94;2610627;28;20041;-78
2022/01/13 05:39:25;;;;;;;36.25;15.40;;;;;;;-4.73;87.75;100479.13;2610655;28;20049;-78
2022/01/13 05:40:41;;;;;;;37.28;15.48;;;;;;;-4.79;87.52;100473.59;2610652;28;20052;-78
2022/01/13 05:41:59;;;;;;;34.03;14.77;;;;;;;-4.71;87.38;100469.88;2610454;28;20090;-78
2022/01/13 05:43:15;;;;;;;38.78;15.60;;;;;;;-4.75;87.72;100473.03;2610183;28;20094;-78
2022/01/13 05:44:37;;;;;;;37.97;16.00;;;;;;;-4.87;87.35;100472.19;2609925;28;20045;-78
2022/01/13 05:45:52;;;;;;;;;;;;;;;-4.93;87.68;100467.56;2611440;28;20056;-77
2022/01/13 05:47:11;;;;;;;37.03;14.20;;;;;;;-5.01;87.77;100473.81;2610699;28;19931;-77
2022/01/13 05:48:26;;;;;;;33.15;14.23;;;;;;;-4.92;87.53;100481.22;2610477;28;20487;-78
2022/01/13 05:49:42;;;;;;;35.13;16.10;;;;;;;-4.90;87.24;100474.53;2610387;28;20052;-77
2022/01/13 05:50:59;;;;;;;35.30;15.07;;;;;;;-4.90;86.70;100475.44;2610510;28;20155;-77
2022/01/13 05:52:15;;;;;;;37.08;15.80;;;;;;;-4.91;87.39;100467.66;2610686;28;20076;-77
2022/01/13 05:53:30;;;;;;;37.58;16.80;;;;;;;-4.91;87.42;100470.19;2610822;28;20045;-77
2022/01/13 05:54:46;;;;;;;38.03;15.90;;;;;;;-4.94;87.36;100464.91;2610762;28;20045;-77
2022/01/13 05:56:01;;;;;;;35.05;15.45;;;;;;;-4.93;87.68;100466.66;2609979;28;20098;-77
2022/01/13 05:57:17;;;;;;;33.10;15.10;;;;;;;-4.90;87.27;100466.84;2610617;28;20136;-77
2022/01/13 05:58:33;;;;;;;41.50;16.00;;;;;;;-4.89;87.59;100463.53;2610057;28;20049;-77
2022/01/13 05:59:48;;;;;;;34.97;16.23;;;;;;;-4.92;87.17;100459.13;2610933;28;20438;-78
2022/01/13 06:01:04;;;;;;;33.72;15.00;;;;;;;-4.88;87.13;100462.78;2610565;28;20119;-77
2022/01/13 06:02:20;;;;;;;34.97;14.90;;;;;;;-4.85;87.29;100462.97;2610683;28;20080;-77
2022/01/13 06:03:35;;;;;;;34.17;14.18;;;;;;;-4.86;87.13;100467.19;2610733;28;20052;-78
2022/01/13 06:04:51;;;;;;;37.45;15.35;;;;;;;-4.83;87.38;100469.94;2610513;28;20053;-77
2022/01/13 06:06:06;;;;;;;36.10;15.50;;;;;;;-4.80;87.50;100463.28;2610198;28;20115;-77
2022/01/13 06:07:22;;;;;;;36.30;14.70;;;;;;;-4.82;88.00;100473.38;2610157;28;20049;-77
2022/01/13 06:08:38;;;;;;;36.00;15.75;;;;;;;-4.77;87.50;100473.69;2610697;28;20044;-77
2022/01/13 06:10:07;;;;;;;37.78;15.65;;;;;;;-4.75;87.70;100478.13;2610335;28;20045;-79